Burlington, Kansas
Current Conditions -  °F | °C
As of 10:53 AM on Friday 28 Nov 2014 (Local Time) from KEMP Reporting Station
Clear Clear  
Wind Chill: 55°   Ceiling: Unl
Heat Index: 55°   Visibility: 10mi
Dew Point: 31°   Wind: 15mph
Humidity: 40%   Direction: 210°SSW
Pressure: 29.93"   Gusts: NA
Location:  38.19°N, 95.74°W
Report Text: KEMP 281653Z AUTO 21013KT 10SM CLR 13/M01 A2993 RMK AO2 SLP141 T01281006
Loading
Personal Weather Stations






























Interactive Weather Map New forecast layout! Learn more

10-Day Weather Forecast

Advertisements
Track Severe Weather on mobile